createdAt,value
2023-12-04T00:02:01.476Z,99279.19
2023-12-04T00:04:28.340Z,99279.16
2023-12-04T00:06:55.248Z,99273.06
2023-12-04T00:09:22.300Z,99272.09
2023-12-04T00:11:49.001Z,99271.28
2023-12-04T00:14:15.665Z,99263.50
2023-12-04T00:16:42.410Z,99267.72
2023-12-04T00:19:10.953Z,99258.94
2023-12-04T00:21:38.003Z,99257.25
2023-12-04T00:24:05.833Z,99252.97
2023-12-04T00:26:32.575Z,99258.13
2023-12-04T00:28:59.246Z,99250.09
2023-12-04T00:31:25.998Z,99239.63
2023-12-04T00:33:52.780Z,99231.88
2023-12-04T00:36:20.844Z,99229.22
2023-12-04T00:38:47.653Z,99220.63
2023-12-04T00:41:14.341Z,99220.69
2023-12-04T00:43:41.064Z,99220.63
2023-12-04T00:46:08.077Z,99216.22
2023-12-04T00:48:35.221Z,99210.06
2023-12-04T00:51:02.118Z,99206.50
2023-12-04T00:53:28.803Z,99202.06
2023-12-04T00:55:55.467Z,99203.78
2023-12-04T00:58:22.141Z,99197.72
2023-12-04T01:00:50.323Z,99202.06
2023-12-04T01:03:17.100Z,99185.66
2023-12-04T01:05:43.831Z,99192.41
2023-12-04T01:08:10.624Z,99182.81
2023-12-04T01:10:37.314Z,99182.81
2023-12-04T01:13:04.203Z,99169.69
2023-12-04T01:15:30.984Z,99173.16
2023-12-04T01:17:57.844Z,99171.25
2023-12-04T01:20:24.591Z,99171.22
2023-12-04T01:22:52.227Z,99176.31
2023-12-04T01:25:20.104Z,99165.09
2023-12-04T01:27:46.783Z,99163.31
2023-12-04T01:30:15.278Z,99170.09
2023-12-04T01:32:42.028Z,99166.63
2023-12-04T01:35:08.835Z,99166.47
2023-12-04T01:37:35.527Z,99160.41
2023-12-04T01:40:02.573Z,99155.97
2023-12-04T01:42:29.546Z,99154.19
2023-12-04T01:44:56.895Z,99146.41
2023-12-04T01:47:23.767Z,99148.00
2023-12-04T01:49:50.538Z,99153.25
2023-12-04T01:52:18.132Z,99151.34
2023-12-04T01:54:45.363Z,99146.00
2023-12-04T01:57:12.364Z,99140.75
2023-12-04T01:59:39.636Z,99138.16
2023-12-04T02:02:06.539Z,99137.16
2023-12-04T02:04:34.021Z,99142.34
2023-12-04T02:07:02.100Z,99141.50
2023-12-04T02:09:30.507Z,99137.28
2023-12-04T02:11:59.091Z,99128.50
2023-12-04T02:14:26.433Z,99135.56
2023-12-04T02:16:54.704Z,99123.31
2023-12-04T02:19:22.637Z,99121.72
2023-12-04T02:21:49.368Z,99125.19
2023-12-04T02:24:16.347Z,99109.47
2023-12-04T02:26:53.408Z,99111.19
2023-12-04T02:29:30.760Z,99113.78
2023-12-04T02:31:59.279Z,99106.28
2023-12-04T02:34:28.657Z,99101.28
2023-12-04T02:36:55.832Z,99097.03
2023-12-04T02:39:23.123Z,99109.19
2023-12-04T02:41:50.266Z,99097.03
2023-12-04T02:44:16.943Z,99098.81
2023-12-04T02:46:44.196Z,99098.94
2023-12-04T02:49:11.063Z,99094.47
2023-12-04T02:51:37.776Z,99091.78
2023-12-04T02:54:04.739Z,99088.31
2023-12-04T02:56:31.444Z,99087.44
2023-12-04T02:58:58.098Z,99082.19
2023-12-04T03:01:24.833Z,99080.47
2023-12-04T03:03:52.342Z,99073.53
2023-12-04T03:06:19.268Z,99078.72
2023-12-04T03:08:45.972Z,99070.75
2023-12-04T03:11:12.626Z,99071.66
2023-12-04T03:13:39.698Z,99073.47
2023-12-04T03:16:06.707Z,99058.78
2023-12-04T03:18:33.541Z,99056.69
2023-12-04T03:21:00.333Z,99052.31
2023-12-04T03:23:26.974Z,99051.50
2023-12-04T03:25:54.331Z,99052.34
2023-12-04T03:28:21.055Z,99053.31
2023-12-04T03:30:47.797Z,99053.31
2023-12-04T03:33:14.610Z,99048.94
2023-12-04T03:35:41.546Z,99047.41
2023-12-04T03:38:08.340Z,99050.09
2023-12-04T03:40:34.972Z,99056.19
2023-12-04T03:43:01.692Z,99048.41
2023-12-04T03:45:28.800Z,99045.03
2023-12-04T03:47:56.018Z,99043.41
2023-12-04T03:50:22.770Z,99038.41
2023-12-04T03:52:49.552Z,99035.06
2023-12-04T03:55:16.426Z,99032.53
2023-12-04T03:57:43.247Z,99031.56
2023-12-04T04:00:11.448Z,99038.44
2023-12-04T04:02:40.306Z,99035.00
2023-12-04T04:05:07.144Z,99024.59
2023-12-04T04:07:34.035Z,99022.03
2023-12-04T04:10:01.634Z,99022.88
2023-12-04T04:12:28.710Z,99008.84
2023-12-04T04:14:55.334Z,99013.38
2023-12-04T04:17:22.050Z,99014.31
2023-12-04T04:19:48.748Z,99011.75
2023-12-04T04:22:15.666Z,99000.44
2023-12-04T04:24:42.426Z,99003.09
2023-12-04T04:27:09.298Z,99007.34
2023-12-04T04:29:36.136Z,98990.88
2023-12-04T04:32:02.895Z,98983.22
2023-12-04T04:34:29.709Z,98995.25
2023-12-04T04:36:57.321Z,98991.88
2023-12-04T04:39:24.128Z,98991.00
2023-12-04T04:41:51.066Z,98985.81
2023-12-04T04:44:17.905Z,98980.69
2023-12-04T04:46:45.568Z,98980.72
2023-12-04T04:49:12.398Z,98979.09
2023-12-04T04:51:39.344Z,98973.81
2023-12-04T04:54:06.281Z,98973.69
2023-12-04T04:56:33.193Z,98965.94
2023-12-04T04:59:00.051Z,98961.63
2023-12-04T05:01:26.888Z,98966.84
2023-12-04T05:03:53.593Z,98966.78
2023-12-04T05:06:20.763Z,98960.66
2023-12-04T05:08:47.765Z,98956.47
2023-12-04T05:11:16.529Z,98952.97
2023-12-04T05:13:43.824Z,98946.97
2023-12-04T05:16:11.114Z,98945.38
2023-12-04T05:18:39.566Z,98937.63
2023-12-04T05:21:10.850Z,98941.94
2023-12-04T05:23:38.819Z,98930.75
2023-12-04T05:26:08.684Z,98936.91
2023-12-04T05:28:35.896Z,98935.19
2023-12-04T05:31:02.926Z,98930.00
2023-12-04T05:33:30.082Z,98931.88
2023-12-04T05:35:56.908Z,98926.59
2023-12-04T05:38:23.624Z,98930.84
2023-12-04T05:40:50.486Z,98932.63
2023-12-04T05:43:17.400Z,98930.94
2023-12-04T05:45:44.419Z,98925.19
2023-12-04T05:48:11.353Z,98922.59
2023-12-04T05:50:38.221Z,98923.47
2023-12-04T05:53:05.032Z,98919.81
2023-12-04T05:55:32.049Z,98920.72
2023-12-04T05:57:58.868Z,98913.81
2023-12-04T06:00:28.545Z,98917.22
2023-12-04T06:02:56.428Z,98918.28
2023-12-04T06:05:24.712Z,98909.63
2023-12-04T06:07:51.682Z,98906.16
2023-12-04T06:10:18.671Z,98907.94
2023-12-04T06:12:45.564Z,98909.63
2023-12-04T06:15:12.512Z,98908.59
2023-12-04T06:17:39.340Z,98906.03
2023-12-04T06:20:07.841Z,98902.44
2023-12-04T06:22:35.217Z,98895.59
2023-12-04T06:25:02.381Z,98904.16
2023-12-04T06:27:29.513Z,98902.44
2023-12-04T06:29:56.636Z,98903.25
2023-12-04T06:32:23.715Z,98903.31
2023-12-04T06:34:50.877Z,98908.66
2023-12-04T06:37:18.159Z,98902.75
2023-12-04T06:39:46.963Z,98894.78
2023-12-04T06:42:14.349Z,98903.44
2023-12-04T06:44:41.596Z,98905.19
2023-12-04T06:47:10.504Z,98909.44
2023-12-04T06:49:37.455Z,98903.41
2023-12-04T06:56:23.598Z,98896.31
2023-12-04T06:58:50.410Z,98899.75
2023-12-04T07:01:17.512Z,98898.78
2023-12-04T07:03:44.202Z,98894.41
2023-12-04T07:06:11.216Z,98898.72
2023-12-04T07:08:38.021Z,98891.53
2023-12-04T07:11:05.875Z,98888.84
2023-12-04T07:13:32.565Z,98883.66
2023-12-04T07:16:00.886Z,98877.53
2023-12-04T07:18:27.808Z,98877.59
2023-12-04T07:20:54.491Z,98880.22
2023-12-04T07:23:21.415Z,98885.38
2023-12-04T07:25:48.883Z,98882.84
2023-12-04T07:28:18.006Z,98891.63
2023-12-04T07:30:44.757Z,98888.16
2023-12-04T07:33:11.495Z,98881.91
2023-12-04T07:35:38.372Z,98882.66
2023-12-04T07:38:05.042Z,98881.03
2023-12-04T07:40:31.752Z,98876.72
2023-12-04T07:42:58.896Z,98875.59
2023-12-04T07:45:25.575Z,98856.22
2023-12-04T07:47:52.336Z,98865.63
2023-12-04T07:50:18.993Z,98868.88
2023-12-04T07:52:45.621Z,98866.03
2023-12-04T07:55:12.371Z,98860.72
2023-12-04T07:57:39.422Z,98861.69
2023-12-04T08:00:07.009Z,98856.53
2023-12-04T08:02:33.668Z,98856.34
2023-12-04T08:05:01.801Z,98861.44
2023-12-04T08:07:28.628Z,98852.81
2023-12-04T08:09:55.789Z,98851.06
2023-12-04T08:12:22.657Z,98846.66
2023-12-04T08:14:49.467Z,98858.72
2023-12-04T08:17:16.158Z,98849.25
2023-12-04T08:19:43.168Z,98848.34
2023-12-04T08:22:10.174Z,98846.56
2023-12-04T08:24:36.900Z,98842.06
2023-12-04T08:27:03.749Z,98835.84
2023-12-04T08:29:30.429Z,98833.41
2023-12-04T08:31:57.051Z,98834.06
2023-12-04T08:34:23.747Z,98830.22
2023-12-04T08:36:50.520Z,98827.72
2023-12-04T08:39:17.222Z,98828.22
2023-12-04T08:41:55.068Z,98830.38
2023-12-04T08:44:28.402Z,98817.03
2023-12-04T08:46:56.127Z,98826.56
2023-12-04T08:49:24.392Z,98835.03
2023-12-04T08:51:55.553Z,98833.78
2023-12-04T08:54:22.450Z,98828.31
2023-12-04T08:56:49.209Z,98828.16
2023-12-04T08:59:15.849Z,98836.56
2023-12-04T09:01:42.673Z,98840.75
2023-12-04T09:04:10.697Z,98843.06
2023-12-04T09:09:10.973Z,98829.34
2023-12-04T09:11:44.622Z,98838.38
2023-12-04T09:14:12.282Z,98819.28
2023-12-04T09:16:39.014Z,98825.94
2023-12-04T09:19:05.892Z,98829.13
2023-12-04T09:21:33.105Z,98833.38
2023-12-04T09:23:59.860Z,98825.59
2023-12-04T09:26:26.503Z,98829.50
2023-12-04T09:28:53.443Z,98828.09
2023-12-04T09:31:20.887Z,98830.31
2023-12-04T09:33:50.493Z,98826.09
2023-12-04T09:36:17.520Z,98823.06
2023-12-04T09:38:44.896Z,98830.94
2023-12-04T09:41:13.757Z,98826.16
2023-12-04T09:43:42.737Z,98824.41
2023-12-04T09:46:10.793Z,98817.19
2023-12-04T09:48:39.102Z,98809.78
2023-12-04T09:51:06.765Z,98817.34
2023-12-04T09:53:34.588Z,98807.63
2023-12-04T09:56:08.204Z,98795.16
2023-12-04T09:58:37.378Z,98797.66
2023-12-04T10:01:05.348Z,98800.63
2023-12-04T10:03:32.946Z,98787.53
2023-12-04T10:06:00.015Z,98781.44
2023-12-04T10:08:26.740Z,98780.94
2023-12-04T10:10:53.504Z,98768.75
2023-12-04T10:13:55.405Z,98756.56
2023-12-04T10:16:07.204Z,98754.88
2023-12-04T10:18:35.334Z,98754.09
2023-12-04T10:21:04.093Z,98746.25
2023-12-04T10:23:44.596Z,98743.44
2023-12-04T10:26:16.405Z,98736.94
2023-12-04T10:29:00.392Z,98723.91
2023-12-04T10:31:27.062Z,98726.41
2023-12-04T10:33:53.805Z,98721.09
2023-12-04T10:36:20.592Z,98717.66
2023-12-04T10:38:47.264Z,98712.16
2023-12-04T10:41:16.902Z,98704.22
2023-12-04T10:43:57.240Z,98690.91
2023-12-04T10:46:28.786Z,98681.91
2023-12-04T10:48:56.262Z,98678.09
2023-12-04T10:51:23.396Z,98673.50
2023-12-04T10:53:50.595Z,98662.78
2023-12-04T10:56:24.789Z,98654.97
2023-12-04T10:58:54.296Z,98650.25
2023-12-04T11:01:24.786Z,98651.09
2023-12-04T11:03:55.385Z,98648.50
2023-12-04T11:06:23.263Z,98649.75
2023-12-04T11:08:52.048Z,98639.72
2023-12-04T11:11:32.908Z,98639.13
2023-12-04T11:14:02.985Z,98632.22
2023-12-04T11:16:43.418Z,98631.09
2023-12-04T11:19:25.984Z,98631.63
2023-12-04T11:21:54.326Z,98632.53
2023-12-04T11:24:22.787Z,98615.44
2023-12-04T11:26:51.293Z,98618.66
2023-12-04T11:29:18.856Z,98616.28
2023-12-04T11:31:47.092Z,98602.16
2023-12-04T11:34:13.978Z,98606.41
2023-12-04T11:36:41.187Z,98614.97
2023-12-04T11:39:12.166Z,98608.06
2023-12-04T11:41:39.353Z,98599.78
2023-12-04T11:44:16.835Z,98592.41
2023-12-04T11:46:57.725Z,98587.50
2023-12-04T11:49:32.468Z,98590.75
2023-12-04T11:52:00.946Z,98580.44
2023-12-04T11:54:29.613Z,98581.44
2023-12-04T11:57:02.439Z,98585.91
2023-12-04T11:59:29.231Z,98582.97
2023-12-04T12:02:00.187Z,98583.53
2023-12-04T12:04:29.014Z,98573.84
2023-12-04T12:06:56.168Z,98566.31
2023-12-04T12:09:24.142Z,98562.28
2023-12-04T12:11:50.980Z,98560.09
2023-12-04T12:14:22.138Z,98554.81
2023-12-04T12:16:49.246Z,98555.66
2023-12-04T12:19:16.564Z,98553.56
2023-12-04T12:21:43.400Z,98545.22
2023-12-04T12:24:13.815Z,98537.75
2023-12-04T12:26:40.910Z,98536.81
2023-12-04T12:29:07.918Z,98534.81
2023-12-04T12:31:34.610Z,98518.22
2023-12-04T12:34:01.342Z,98519.59
2023-12-04T12:36:28.456Z,98511.75
2023-12-04T12:38:55.525Z,98506.72
2023-12-04T12:41:22.185Z,98509.56
2023-12-04T12:43:52.893Z,98513.00
2023-12-04T12:46:20.037Z,98508.63
2023-12-04T12:48:48.602Z,98507.91
2023-12-04T12:51:15.754Z,98498.72
2023-12-04T12:53:47.714Z,98500.16
2023-12-04T12:56:17.480Z,98488.72
2023-12-04T12:58:44.229Z,98489.78
2023-12-04T13:01:12.229Z,98492.91
2023-12-04T13:03:39.298Z,98486.03
2023-12-04T13:06:06.340Z,98473.72
2023-12-04T13:08:33.412Z,98467.81
2023-12-04T13:11:00.456Z,98464.97
2023-12-04T13:13:28.243Z,98456.34
2023-12-04T13:15:55.780Z,98456.03
2023-12-04T13:18:22.828Z,98460.41
2023-12-04T13:20:49.633Z,98458.97
2023-12-04T13:23:16.503Z,98450.28
2023-12-04T13:25:44.978Z,98449.28
2023-12-04T13:28:20.023Z,98453.81
2023-12-04T13:30:55.129Z,98450.28
2023-12-04T13:33:21.883Z,98438.69
2023-12-04T13:35:48.611Z,98433.63
2023-12-04T13:38:21.207Z,98441.22
2023-12-04T13:41:01.030Z,98436.84
2023-12-04T13:43:46.888Z,98436.75
2023-12-04T13:46:13.681Z,98429.06
2023-12-04T13:48:42.024Z,98425.03
2023-12-04T13:51:11.303Z,98413.81
2023-12-04T13:53:51.073Z,98408.88
2023-12-04T13:56:36.613Z,98397.72
2023-12-04T13:59:05.773Z,98400.25
2023-12-04T14:01:32.666Z,98400.09
2023-12-04T14:04:03.531Z,98385.78
2023-12-04T14:06:30.515Z,98380.72
2023-12-04T14:08:58.676Z,98379.53
2023-12-04T14:11:25.628Z,98362.72
2023-12-04T14:13:52.516Z,98361.72
2023-12-04T14:16:19.481Z,98367.41
2023-12-04T14:18:46.894Z,98356.13
2023-12-04T14:21:13.645Z,98361.19
2023-12-04T14:23:40.364Z,98365.06
2023-12-04T14:26:07.393Z,98354.78
2023-12-04T14:28:42.201Z,98350.59
2023-12-04T14:31:11.206Z,98354.09
2023-12-04T14:33:41.508Z,98356.03
2023-12-04T14:36:10.401Z,98348.06
2023-12-04T14:38:37.667Z,98342.66
2023-12-04T14:41:05.033Z,98337.63
2023-12-04T14:43:31.681Z,98332.41
2023-12-04T14:45:58.358Z,98333.00
2023-12-04T14:48:25.075Z,98327.53
2023-12-04T14:50:51.954Z,98332.81
2023-12-04T14:53:31.902Z,98322.44
2023-12-04T14:56:17.351Z,98317.25
2023-12-04T14:58:46.782Z,98324.31
2023-12-04T15:01:32.239Z,98322.63
2023-12-04T15:04:27.947Z,98314.63
2023-12-04T15:07:00.880Z,98313.13
2023-12-04T15:09:45.899Z,98309.59
2023-12-04T15:12:36.764Z,98316.72
2023-12-04T15:15:32.069Z,98317.88
2023-12-04T15:18:18.985Z,98313.84
2023-12-04T15:20:45.919Z,98302.06
2023-12-04T15:23:13.169Z,98305.56
2023-12-04T15:25:40.968Z,98304.59
2023-12-04T15:28:08.642Z,98297.88
2023-12-04T15:30:42.778Z,98289.94
2023-12-04T15:33:09.647Z,98295.09
2023-12-04T15:35:38.594Z,98284.59
2023-12-04T15:38:05.298Z,98294.50
2023-12-04T15:40:32.110Z,98286.00
2023-12-04T15:42:59.431Z,98287.59
2023-12-04T15:45:27.169Z,98285.22
2023-12-04T15:47:53.975Z,98292.34
2023-12-04T15:50:23.607Z,98293.00
2023-12-04T15:52:50.514Z,98288.72
2023-12-04T15:55:17.425Z,98288.03
2023-12-04T15:57:44.189Z,98288.03
2023-12-04T16:00:14.095Z,98285.50
2023-12-04T16:02:41.551Z,98285.41
2023-12-04T16:05:11.986Z,98281.81
2023-12-04T16:07:39.147Z,98285.50
2023-12-04T16:10:07.979Z,98278.25
2023-12-04T16:12:35.060Z,98280.47
2023-12-04T16:15:03.025Z,98270.63
2023-12-04T16:17:29.697Z,98273.91
2023-12-04T16:20:01.227Z,98278.63
2023-12-04T16:22:28.080Z,98287.03
2023-12-04T16:24:54.814Z,98286.13
2023-12-04T16:27:21.546Z,98286.06
2023-12-04T16:29:48.347Z,98283.19
2023-12-04T16:32:15.050Z,98275.06
2023-12-04T16:34:41.938Z,98273.00
2023-12-04T16:37:08.617Z,98265.19
2023-12-04T16:39:35.322Z,98259.31
2023-12-04T16:42:02.085Z,98263.00
2023-12-04T16:44:28.917Z,98263.31
2023-12-04T16:46:58.902Z,98250.44
2023-12-04T16:49:26.124Z,98256.56
2023-12-04T16:51:53.522Z,98250.38
2023-12-04T16:54:21.060Z,98250.50
2023-12-04T16:56:51.204Z,98253.28
2023-12-04T16:59:19.135Z,98256.28
2023-12-04T17:01:45.918Z,98254.44
2023-12-04T17:04:14.522Z,98253.69
2023-12-04T17:06:41.638Z,98247.47
2023-12-04T17:09:08.516Z,98235.84
2023-12-04T17:11:35.256Z,98229.47
2023-12-04T17:14:02.001Z,98233.75
2023-12-04T17:16:29.563Z,98229.47
2023-12-04T17:18:56.464Z,98216.75
2023-12-04T17:21:23.551Z,98222.75
2023-12-04T17:23:50.255Z,98216.94
2023-12-04T17:26:16.930Z,98218.78
2023-12-04T17:28:43.729Z,98209.97
2023-12-04T17:31:11.264Z,98209.88
2023-12-04T17:33:39.344Z,98210.81
2023-12-04T17:36:06.891Z,98198.41
2023-12-04T17:38:33.629Z,98193.72
2023-12-04T17:41:00.301Z,98192.88
2023-12-04T17:43:27.073Z,98191.00
2023-12-04T17:45:53.768Z,98199.59
2023-12-04T17:48:20.548Z,98196.91
2023-12-04T17:50:47.169Z,98189.16
2023-12-04T17:53:13.884Z,98199.91
2023-12-04T17:55:40.607Z,98196.72
2023-12-04T17:58:07.686Z,98193.34
2023-12-04T18:00:34.637Z,98193.50
2023-12-04T18:03:01.417Z,98198.53
2023-12-04T18:05:28.120Z,98200.53
2023-12-04T18:07:56.350Z,98188.63
2023-12-04T18:10:23.526Z,98186.78
2023-12-04T18:12:50.311Z,98182.69
2023-12-04T18:15:17.125Z,98188.88
2023-12-04T18:17:44.258Z,98180.16
2023-12-04T18:20:16.399Z,98172.94
2023-12-04T18:22:45.948Z,98177.28
2023-12-04T18:25:13.171Z,98165.50
2023-12-04T18:27:40.932Z,98180.00
2023-12-04T18:30:11.301Z,98173.78
2023-12-04T18:32:38.624Z,98176.13
2023-12-04T18:35:06.084Z,98165.19
2023-12-04T18:37:36.524Z,98159.69
2023-12-04T18:40:05.777Z,98154.00
2023-12-04T18:42:32.754Z,98159.41
2023-12-04T18:44:59.820Z,98151.25
2023-12-04T18:47:28.336Z,98156.16
2023-12-04T18:49:58.296Z,98151.59
2023-12-04T18:52:25.449Z,98146.41
2023-12-04T18:54:52.193Z,98142.09
2023-12-04T18:57:18.952Z,98147.44
2023-12-04T18:59:45.688Z,98151.19
2023-12-04T19:02:12.438Z,98153.13
2023-12-04T19:04:39.359Z,98150.69
2023-12-04T19:07:06.167Z,98156.66
2023-12-04T19:09:32.931Z,98148.25
2023-12-04T19:11:59.913Z,98150.69
2023-12-04T19:14:26.630Z,98142.94
2023-12-04T19:16:53.270Z,98147.28
2023-12-04T19:19:20.004Z,98145.66
2023-12-04T19:21:46.777Z,98135.97
2023-12-04T19:24:13.483Z,98126.16
2023-12-04T19:26:40.150Z,98123.34
2023-12-04T19:29:07.538Z,98131.25
2023-12-04T19:31:34.207Z,98133.47
2023-12-04T19:34:01.068Z,98123.66
2023-12-04T19:36:27.912Z,98118.03
2023-12-04T19:38:54.573Z,98120.50
2023-12-04T19:41:31.430Z,98122.00
2023-12-04T19:43:58.461Z,98113.19
2023-12-04T19:46:25.190Z,98117.56
2023-12-04T19:48:53.801Z,98115.72
2023-12-04T19:51:21.209Z,98115.56
2023-12-04T19:53:48.244Z,98114.50
2023-12-04T19:56:14.934Z,98114.56
2023-12-04T19:58:42.189Z,98108.78
2023-12-04T20:01:09.264Z,98107.09
2023-12-04T20:03:36.111Z,98108.00
2023-12-04T20:06:04.099Z,98100.19
2023-12-04T20:08:31.805Z,98103.03
2023-12-04T20:10:58.463Z,98100.44
2023-12-04T20:13:25.112Z,98094.38
2023-12-04T20:15:51.806Z,98084.13
2023-12-04T20:18:18.546Z,98081.44
2023-12-04T20:20:45.302Z,98086.53
2023-12-04T20:23:13.123Z,98082.69
2023-12-04T20:25:41.494Z,98080.66
2023-12-04T20:28:08.537Z,98088.94
2023-12-04T20:30:35.909Z,98085.28
2023-12-04T20:33:03.959Z,98083.97
2023-12-04T20:35:31.772Z,98076.50
2023-12-04T20:37:59.381Z,98084.53
2023-12-04T20:40:26.055Z,98075.13
2023-12-04T20:42:52.791Z,98079.34
2023-12-04T20:45:19.545Z,98072.97
2023-12-04T20:47:46.383Z,98074.66
2023-12-04T20:50:13.110Z,98066.00
2023-12-04T20:52:39.834Z,98070.84
2023-12-04T20:55:07.148Z,98069.81
2023-12-04T20:57:34.553Z,98067.28
2023-12-04T21:00:01.398Z,98062.84
2023-12-04T21:02:28.057Z,98059.34
2023-12-04T21:04:55.080Z,98062.41
2023-12-04T21:07:23.075Z,98058.03
2023-12-04T21:09:51.036Z,98063.03
2023-12-04T21:12:17.851Z,98057.97
2023-12-04T21:14:44.768Z,98060.50
2023-12-04T21:17:11.442Z,98043.91
2023-12-04T21:19:38.258Z,98043.38
2023-12-04T21:22:05.250Z,98035.84
2023-12-04T21:24:32.511Z,98019.38
2023-12-04T21:26:59.378Z,98015.19
2023-12-04T21:29:26.128Z,98013.28
2023-12-04T21:31:52.846Z,98005.78
2023-12-04T21:34:19.839Z,98017.34
2023-12-04T21:36:46.682Z,98013.13
2023-12-04T21:39:14.278Z,98014.91
2023-12-04T21:41:41.117Z,98021.78
2023-12-04T21:44:08.008Z,98021.63
2023-12-04T21:46:36.345Z,98028.28
2023-12-04T21:49:04.424Z,98025.44
2023-12-04T21:51:31.654Z,98017.03
2023-12-04T21:53:58.433Z,98014.97
2023-12-04T21:56:25.681Z,98016.66
2023-12-04T21:58:52.442Z,98011.34
2023-12-04T22:01:19.250Z,98007.69
2023-12-04T22:03:46.071Z,98004.25
2023-12-04T22:06:13.194Z,98001.47
2023-12-04T22:08:40.219Z,97992.91
2023-12-04T22:11:07.408Z,97997.94
2023-12-04T22:13:34.007Z,97995.28
2023-12-04T22:16:00.839Z,97994.25
2023-12-04T22:18:28.514Z,97983.84
2023-12-04T22:20:55.834Z,97984.03
2023-12-04T22:23:22.458Z,97974.28
2023-12-04T22:25:49.268Z,97973.38
2023-12-04T22:28:16.004Z,97968.94
2023-12-04T22:30:43.706Z,97965.22
2023-12-04T22:33:10.567Z,97958.44
2023-12-04T22:35:37.262Z,97942.16
2023-12-04T22:38:04.121Z,97946.59
2023-12-04T22:40:30.860Z,97951.78
2023-12-04T22:42:57.654Z,97957.25
2023-12-04T22:45:24.614Z,97959.00
2023-12-04T22:47:51.511Z,97956.41
2023-12-04T22:50:18.438Z,97957.31
2023-12-04T22:52:47.834Z,97953.81
2023-12-04T22:55:19.199Z,97954.56
2023-12-04T22:57:45.958Z,97946.78
2023-12-04T23:00:13.477Z,97944.75
2023-12-04T23:02:43.170Z,97949.81
2023-12-04T23:05:10.053Z,97938.50
2023-12-04T23:07:37.816Z,97944.44
2023-12-04T23:10:07.058Z,97946.94
2023-12-04T23:12:33.966Z,97946.28
2023-12-04T23:15:00.780Z,97946.09
2023-12-04T23:17:27.795Z,97942.25
2023-12-04T23:19:54.636Z,97950.06
2023-12-04T23:22:22.052Z,97948.22
2023-12-04T23:24:48.933Z,97941.22
2023-12-04T23:27:22.416Z,97931.16
2023-12-04T23:29:55.222Z,97925.16
2023-12-04T23:32:22.002Z,97927.13
2023-12-04T23:34:48.915Z,97921.19
2023-12-04T23:37:15.680Z,97919.34
2023-12-04T23:39:42.692Z,97914.97
2023-12-04T23:42:09.471Z,97920.09
2023-12-04T23:44:36.269Z,97920.09
2023-12-04T23:47:02.990Z,97913.41
2023-12-04T23:49:29.912Z,97922.78
2023-12-04T23:51:56.694Z,97923.03
2023-12-04T23:54:23.504Z,97911.03
2023-12-04T23:56:50.382Z,97909.09
2023-12-04T23:59:17.125Z,97898.63
